createdAt,value
2023-02-06T00:00:57.913Z,68.42
2023-02-06T00:01:57.877Z,68.44
2023-02-06T00:02:57.903Z,68.66
2023-02-06T00:03:57.857Z,68.83
2023-02-06T00:04:57.883Z,68.91
2023-02-06T00:05:57.896Z,69.07
2023-02-06T00:06:57.830Z,69.30
2023-02-06T00:07:57.844Z,69.29
2023-02-06T00:08:57.780Z,69.30
2023-02-06T00:09:57.769Z,69.25
2023-02-06T00:10:57.763Z,69.25
2023-02-06T00:11:57.740Z,69.21
2023-02-06T00:12:57.777Z,69.32
2023-02-06T00:13:57.871Z,69.32
2023-02-06T00:14:57.726Z,69.38
2023-02-06T00:15:57.706Z,69.55
2023-02-06T00:16:57.700Z,69.61
2023-02-06T00:17:57.695Z,69.67
2023-02-06T00:18:57.699Z,69.61
2023-02-06T00:19:57.642Z,69.49
2023-02-06T00:20:58.298Z,69.63
2023-02-06T00:21:57.719Z,69.55
2023-02-06T00:22:57.890Z,69.68
2023-02-06T00:23:57.603Z,69.76
2023-02-06T00:24:57.607Z,69.74
2023-02-06T00:25:57.566Z,69.86
2023-02-06T00:26:57.568Z,70.07
2023-02-06T00:27:57.606Z,70.22
2023-02-06T00:28:57.527Z,70.46
2023-02-06T00:29:58.467Z,70.63
2023-02-06T00:30:57.589Z,70.48
2023-02-06T00:31:57.501Z,70.46
2023-02-06T00:32:57.497Z,70.40
2023-02-06T00:33:57.488Z,70.32
2023-02-06T00:34:57.472Z,70.25
2023-02-06T00:35:57.450Z,70.32
2023-02-06T00:36:57.439Z,70.46
2023-02-06T00:37:57.438Z,70.32
2023-02-06T00:38:58.387Z,70.37
2023-02-06T00:39:57.434Z,70.32
2023-02-06T00:40:57.404Z,70.47
2023-02-06T00:41:57.376Z,70.52
2023-02-06T00:42:57.463Z,70.84
2023-02-06T00:43:57.367Z,70.71
2023-02-06T00:44:57.370Z,70.72
2023-02-06T00:45:57.321Z,70.88
2023-02-06T00:46:57.308Z,70.98
2023-02-06T00:47:57.303Z,71.13
2023-02-06T00:48:57.327Z,71.35
2023-02-06T00:49:57.260Z,71.39
2023-02-06T00:50:57.259Z,71.39
2023-02-06T00:51:57.242Z,71.53
2023-02-06T00:52:57.253Z,71.74
2023-02-06T00:53:57.246Z,71.73
2023-02-06T00:54:57.276Z,71.70
2023-02-06T00:55:57.208Z,71.72
2023-02-06T00:56:57.178Z,71.83
2023-02-06T00:57:57.160Z,71.93
2023-02-06T00:58:57.158Z,71.90
2023-02-06T00:59:57.138Z,71.94
2023-02-06T01:00:57.148Z,72.11
2023-02-06T01:01:57.146Z,72.13
2023-02-06T01:02:57.126Z,72.07
2023-02-06T01:03:57.087Z,72.29
2023-02-06T01:04:57.082Z,72.44
2023-02-06T01:05:57.100Z,72.11
2023-02-06T01:06:57.089Z,71.72
2023-02-06T01:07:57.041Z,71.59
2023-02-06T01:08:57.023Z,71.59
2023-02-06T01:09:57.001Z,71.67
2023-02-06T01:10:57.018Z,71.53
2023-02-06T01:11:57.011Z,71.71
2023-02-06T01:12:56.985Z,71.76
2023-02-06T01:13:56.953Z,71.76
2023-02-06T01:14:56.950Z,71.73
2023-02-06T01:15:56.988Z,71.53
2023-02-06T01:16:56.939Z,71.61
2023-02-06T01:17:56.948Z,71.49
2023-02-06T01:18:56.904Z,71.12
2023-02-06T01:19:56.886Z,71.14
2023-02-06T01:20:56.869Z,71.26
2023-02-06T01:21:56.886Z,71.34
2023-02-06T01:22:56.860Z,71.73
2023-02-06T01:23:56.861Z,72.14
2023-02-06T01:24:56.839Z,72.30
2023-02-06T01:25:56.796Z,72.43
2023-02-06T01:26:56.806Z,72.38
2023-02-06T01:27:56.839Z,72.25
2023-02-06T01:28:56.754Z,72.41
2023-02-06T01:29:56.743Z,72.56
2023-02-06T01:30:56.801Z,72.59
2023-02-06T01:31:56.734Z,72.57
2023-02-06T01:32:56.729Z,72.33
2023-02-06T01:33:56.705Z,72.65
2023-02-06T01:34:56.679Z,72.70
2023-02-06T01:35:56.670Z,72.70
2023-02-06T01:36:56.674Z,72.68
2023-02-06T01:37:56.691Z,72.88
2023-02-06T01:38:56.633Z,72.82
2023-02-06T01:39:56.625Z,72.70
2023-02-06T01:40:56.609Z,72.85
2023-02-06T01:41:56.599Z,72.85
2023-02-06T01:42:56.626Z,72.93
2023-02-06T01:43:56.589Z,72.78
2023-02-06T01:44:56.554Z,72.76
2023-02-06T01:45:56.545Z,72.83
2023-02-06T01:46:56.634Z,72.75
2023-02-06T01:47:56.523Z,72.56
2023-02-06T01:48:56.553Z,72.21
2023-02-06T01:49:56.546Z,72.09
2023-02-06T01:50:56.512Z,71.84
2023-02-06T01:51:56.474Z,72.02
2023-02-06T01:52:56.462Z,71.92
2023-02-06T01:53:56.459Z,71.84
2023-02-06T01:54:56.471Z,71.74
2023-02-06T01:55:56.422Z,71.63
2023-02-06T01:56:56.407Z,71.53
2023-02-06T01:57:56.397Z,71.51
2023-02-06T01:58:56.450Z,71.51
2023-02-06T01:59:56.378Z,71.65
2023-02-06T02:00:56.436Z,71.56
2023-02-06T02:01:56.369Z,71.91
2023-02-06T02:02:56.317Z,71.74
2023-02-06T02:03:56.309Z,71.72
2023-02-06T02:04:56.317Z,71.55
2023-02-06T02:05:56.366Z,71.45
2023-02-06T02:06:56.366Z,71.71
2023-02-06T02:07:56.339Z,71.87
2023-02-06T02:08:58.116Z,71.93
2023-02-06T02:09:56.246Z,71.85
2023-02-06T02:10:56.244Z,71.82
2023-02-06T02:11:56.237Z,71.99
2023-02-06T02:12:56.236Z,71.72
2023-02-06T02:13:56.188Z,71.77
2023-02-06T02:14:56.207Z,71.50
2023-02-06T02:15:56.232Z,71.55
2023-02-06T02:16:56.163Z,71.45
2023-02-06T02:17:56.158Z,71.52
2023-02-06T02:18:56.160Z,71.73
2023-02-06T02:19:56.112Z,71.91
2023-02-06T02:20:56.122Z,71.89
2023-02-06T02:21:56.101Z,71.88
2023-02-06T02:22:56.142Z,71.88
2023-02-06T02:23:56.066Z,71.96
2023-02-06T02:24:56.062Z,71.87
2023-02-06T02:25:56.080Z,71.83
2023-02-06T02:26:56.048Z,71.82
2023-02-06T02:27:56.108Z,71.80
2023-02-06T02:28:56.000Z,71.79
2023-02-06T02:29:55.991Z,71.80
2023-02-06T02:30:56.052Z,71.79
2023-02-06T02:31:55.996Z,71.77
2023-02-06T02:32:55.992Z,71.93
2023-02-06T02:33:55.940Z,71.86
2023-02-06T02:34:55.930Z,71.79
2023-02-06T02:35:55.916Z,72.01
2023-02-06T02:36:55.940Z,71.68
2023-02-06T02:37:55.905Z,71.56
2023-02-06T02:38:55.869Z,71.75
2023-02-06T02:39:55.883Z,71.82
2023-02-06T02:40:55.860Z,71.76
2023-02-06T02:41:55.853Z,71.69
2023-02-06T02:42:55.878Z,72.01
2023-02-06T02:43:55.820Z,71.96
2023-02-06T02:44:55.797Z,71.97
2023-02-06T02:45:55.840Z,72.29
2023-02-06T02:46:55.787Z,72.42
2023-02-06T02:47:55.783Z,72.32
2023-02-06T02:48:55.828Z,72.51
2023-02-06T02:49:55.748Z,72.59
2023-02-06T02:50:55.729Z,72.49
2023-02-06T02:51:55.724Z,72.14
2023-02-06T02:52:55.746Z,72.13
2023-02-06T02:53:55.760Z,72.30
2023-02-06T02:54:55.700Z,72.36
2023-02-06T02:55:55.660Z,72.58
2023-02-06T02:56:55.650Z,72.83
2023-02-06T02:57:55.694Z,73.13
2023-02-06T02:58:55.643Z,72.65
2023-02-06T02:59:55.597Z,72.35
2023-02-06T03:00:55.687Z,72.31
2023-02-06T03:01:55.638Z,72.22
2023-02-06T03:02:55.597Z,72.47
2023-02-06T03:03:55.626Z,72.49
2023-02-06T03:04:55.712Z,72.17
2023-02-06T03:05:55.573Z,72.00
2023-02-06T03:06:55.545Z,71.96
2023-02-06T03:07:55.506Z,72.04
2023-02-06T03:08:55.497Z,71.98
2023-02-06T03:09:55.496Z,71.70
2023-02-06T03:10:55.486Z,71.57
2023-02-06T03:11:55.517Z,71.54
2023-02-06T03:12:55.490Z,71.23
2023-02-06T03:13:55.536Z,71.14
2023-02-06T03:14:55.431Z,71.54
2023-02-06T03:15:55.462Z,71.46
2023-02-06T03:16:55.415Z,71.17
2023-02-06T03:17:55.368Z,71.10
2023-02-06T03:18:55.620Z,71.33
2023-02-06T03:19:55.357Z,71.20
2023-02-06T03:20:55.354Z,71.11
2023-02-06T03:21:55.344Z,71.33
2023-02-06T03:22:55.337Z,71.04
2023-02-06T03:23:55.384Z,71.08
2023-02-06T03:24:55.316Z,70.98
2023-02-06T03:25:55.290Z,71.01
2023-02-06T03:26:55.331Z,71.04
2023-02-06T03:27:55.255Z,71.28
2023-02-06T03:28:55.235Z,71.67
2023-02-06T03:29:55.246Z,71.81
2023-02-06T03:30:55.244Z,71.76
2023-02-06T03:31:55.249Z,71.66
2023-02-06T03:32:55.203Z,71.28
2023-02-06T03:33:55.219Z,71.39
2023-02-06T03:34:55.156Z,71.13
2023-02-06T03:35:55.148Z,71.46
2023-02-06T03:36:55.141Z,71.19
2023-02-06T03:37:55.152Z,71.04
2023-02-06T03:38:55.178Z,71.15
2023-02-06T03:39:55.092Z,70.99
2023-02-06T03:40:55.084Z,71.05
2023-02-06T03:41:55.060Z,70.99
2023-02-06T03:42:55.139Z,70.75
2023-02-06T03:43:55.076Z,70.56
2023-02-06T03:44:55.038Z,70.62
2023-02-06T03:45:55.043Z,70.66
2023-02-06T03:46:55.010Z,70.82
2023-02-06T03:47:55.202Z,71.06
2023-02-06T03:48:55.017Z,71.21
2023-02-06T03:49:55.011Z,71.21
2023-02-06T03:50:54.958Z,71.17
2023-02-06T03:51:55.025Z,71.01
2023-02-06T03:52:54.920Z,71.01
2023-02-06T03:53:54.929Z,71.37
2023-02-06T03:54:54.948Z,71.58
2023-02-06T03:55:54.888Z,71.58
2023-02-06T03:56:54.880Z,71.72
2023-02-06T03:57:54.872Z,71.86
2023-02-06T03:58:54.847Z,71.83
2023-02-06T03:59:54.855Z,71.92
2023-02-06T04:00:54.874Z,71.60
2023-02-06T04:01:54.873Z,71.44
2023-02-06T04:02:54.802Z,71.19
2023-02-06T04:03:54.792Z,71.21
2023-02-06T04:04:54.771Z,71.31
2023-02-06T04:05:54.780Z,71.72
2023-02-06T04:06:54.809Z,71.79
2023-02-06T04:07:54.738Z,71.45
2023-02-06T04:08:54.722Z,71.62
2023-02-06T04:09:54.724Z,71.39
2023-02-06T04:10:54.720Z,71.38
2023-02-06T04:11:54.709Z,71.58
2023-02-06T04:12:54.687Z,71.95
2023-02-06T04:13:54.673Z,71.91
2023-02-06T04:14:54.653Z,71.73
2023-02-06T04:15:54.639Z,71.80
2023-02-06T04:16:54.639Z,71.62
2023-02-06T04:18:00.380Z,71.87
2023-02-06T04:18:55.636Z,71.99
2023-02-06T04:19:54.588Z,71.82
2023-02-06T04:20:54.569Z,71.58
2023-02-06T04:21:54.597Z,71.49
2023-02-06T04:22:54.586Z,71.64
2023-02-06T04:23:54.554Z,71.98
2023-02-06T04:24:54.540Z,71.53
2023-02-06T04:25:54.525Z,71.33
2023-02-06T04:26:54.501Z,71.26
2023-02-06T04:27:54.592Z,71.24
2023-02-06T04:28:54.507Z,71.38
2023-02-06T04:29:54.460Z,71.42
2023-02-06T04:30:54.584Z,71.23
2023-02-06T04:31:54.444Z,71.57
2023-02-06T04:32:54.427Z,71.84
2023-02-06T04:33:54.427Z,71.55
2023-02-06T04:34:54.434Z,71.50
2023-02-06T04:35:54.396Z,71.43
2023-02-06T04:36:54.386Z,71.79
2023-02-06T04:37:54.374Z,71.74
2023-02-06T04:38:54.378Z,71.93
2023-02-06T04:39:54.379Z,71.64
2023-02-06T04:40:54.339Z,71.42
2023-02-06T04:41:54.325Z,71.69
2023-02-06T04:42:54.316Z,71.62
2023-02-06T04:43:54.304Z,71.55
2023-02-06T04:44:54.295Z,71.53
2023-02-06T04:45:54.292Z,71.66
2023-02-06T04:46:54.263Z,72.08
2023-02-06T04:47:54.241Z,72.21
2023-02-06T04:48:54.237Z,72.02
2023-02-06T04:49:54.230Z,71.99
2023-02-06T04:50:54.211Z,72.02
2023-02-06T04:51:54.185Z,71.86
2023-02-06T04:52:54.183Z,71.73
2023-02-06T04:53:54.151Z,71.70
2023-02-06T04:54:54.161Z,71.71
2023-02-06T04:55:54.149Z,71.56
2023-02-06T04:56:54.119Z,71.59
2023-02-06T04:57:54.135Z,71.26
2023-02-06T04:58:54.090Z,71.21
2023-02-06T04:59:54.071Z,71.17
2023-02-06T05:00:54.092Z,71.00
2023-02-06T05:01:54.088Z,71.30
2023-02-06T05:02:54.094Z,71.44
2023-02-06T05:03:54.029Z,71.02
2023-02-06T05:04:54.012Z,70.79
2023-02-06T05:05:54.016Z,70.78
2023-02-06T05:06:54.015Z,71.11
2023-02-06T05:07:53.978Z,71.24
2023-02-06T05:08:53.954Z,71.33
2023-02-06T05:09:53.973Z,71.67
2023-02-06T05:10:53.933Z,71.62
2023-02-06T05:11:53.933Z,71.36
2023-02-06T05:12:53.935Z,71.35
2023-02-06T05:13:53.900Z,71.35
2023-02-06T05:14:53.881Z,71.76
2023-02-06T05:15:53.914Z,71.48
2023-02-06T05:16:53.979Z,71.31
2023-02-06T05:17:53.854Z,71.21
2023-02-06T05:18:53.850Z,71.26
2023-02-06T05:19:53.812Z,71.46
2023-02-06T05:20:53.798Z,71.52
2023-02-06T05:21:53.790Z,71.49
2023-02-06T05:22:53.838Z,71.56
2023-02-06T05:23:53.766Z,71.55
2023-02-06T05:24:53.775Z,71.53
2023-02-06T05:25:53.737Z,71.34
2023-02-06T05:26:53.730Z,71.32
2023-02-06T05:27:53.716Z,71.62
2023-02-06T05:28:53.724Z,71.90
2023-02-06T05:29:53.732Z,71.57
2023-02-06T05:30:53.822Z,71.72
2023-02-06T05:31:53.745Z,71.46
2023-02-06T05:32:53.647Z,71.49
2023-02-06T05:33:53.656Z,71.52
2023-02-06T05:34:53.650Z,71.56
2023-02-06T05:35:53.636Z,71.49
2023-02-06T05:36:53.626Z,71.49
2023-02-06T05:37:53.585Z,71.43
2023-02-06T05:38:53.578Z,71.37
2023-02-06T05:39:53.588Z,71.46
2023-02-06T05:40:53.586Z,71.66
2023-02-06T05:41:53.560Z,71.50
2023-02-06T05:42:53.601Z,71.44
2023-02-06T05:43:53.516Z,71.58
2023-02-06T05:44:53.500Z,71.69
2023-02-06T05:45:53.495Z,71.68
2023-02-06T05:46:53.496Z,71.80
2023-02-06T05:47:53.461Z,71.67
2023-02-06T05:48:53.464Z,71.94
2023-02-06T05:49:53.436Z,71.82
2023-02-06T05:50:53.442Z,71.69
2023-02-06T05:51:53.421Z,71.76
2023-02-06T05:52:54.416Z,71.96
2023-02-06T05:53:53.410Z,71.82
2023-02-06T05:54:53.397Z,72.19
2023-02-06T05:55:53.365Z,72.29
2023-02-06T05:56:53.383Z,72.14
2023-02-06T05:57:53.355Z,72.31
2023-02-06T05:58:53.340Z,72.57
2023-02-06T05:59:53.322Z,72.90
2023-02-06T06:00:53.356Z,72.88
2023-02-06T06:01:53.337Z,72.91
2023-02-06T06:02:53.412Z,72.89
2023-02-06T06:03:53.360Z,72.94
2023-02-06T06:04:53.308Z,72.93
2023-02-06T06:05:53.225Z,73.08
2023-02-06T06:06:53.286Z,73.07
2023-02-06T06:07:53.330Z,72.94
2023-02-06T06:08:53.216Z,72.85
2023-02-06T06:09:53.203Z,73.22
2023-02-06T06:10:53.166Z,73.33
2023-02-06T06:11:53.306Z,73.42
2023-02-06T06:12:53.348Z,73.56
2023-02-06T06:13:53.343Z,73.37
2023-02-06T06:14:53.116Z,73.10
2023-02-06T06:15:53.170Z,73.26
2023-02-06T06:16:53.124Z,73.10
2023-02-06T06:17:53.094Z,73.21
2023-02-06T06:18:53.176Z,73.10
2023-02-06T06:19:53.055Z,72.80
2023-02-06T06:20:53.044Z,72.55
2023-02-06T06:21:53.076Z,72.75
2023-02-06T06:22:53.047Z,72.57
2023-02-06T06:23:53.018Z,72.57
2023-02-06T06:24:53.028Z,72.59
2023-02-06T06:25:52.978Z,72.72
2023-02-06T06:26:52.973Z,72.50
2023-02-06T06:27:53.003Z,72.52
2023-02-06T06:28:52.982Z,72.26
2023-02-06T06:29:52.932Z,72.49
2023-02-06T06:30:52.986Z,72.55
2023-02-06T06:31:52.961Z,72.67
2023-02-06T06:32:52.939Z,72.71
2023-02-06T06:33:52.921Z,72.85
2023-02-06T06:34:52.911Z,72.89
2023-02-06T06:35:52.902Z,73.07
2023-02-06T06:36:52.869Z,72.95
2023-02-06T06:37:52.875Z,72.95
2023-02-06T06:38:52.851Z,72.95
2023-02-06T06:39:52.807Z,73.14
2023-02-06T06:40:52.804Z,73.23
2023-02-06T06:41:52.779Z,73.05
2023-02-06T06:42:52.806Z,72.84
2023-02-06T06:43:52.791Z,72.68
2023-02-06T06:44:52.737Z,72.66
2023-02-06T06:45:52.764Z,72.74
2023-02-06T06:46:52.727Z,73.04
2023-02-06T06:47:52.725Z,73.04
2023-02-06T06:48:52.714Z,73.12
2023-02-06T06:49:52.692Z,72.94
2023-02-06T06:50:52.656Z,72.98
2023-02-06T06:51:52.646Z,72.85
2023-02-06T06:52:52.635Z,72.86
2023-02-06T06:53:52.637Z,73.07
2023-02-06T06:54:52.958Z,72.88
2023-02-06T06:55:52.603Z,72.71
2023-02-06T06:56:52.611Z,72.53
2023-02-06T06:57:52.580Z,72.58
2023-02-06T06:58:52.609Z,72.85
2023-02-06T06:59:52.555Z,73.13
2023-02-06T07:00:52.596Z,72.84
2023-02-06T07:01:52.517Z,73.12
2023-02-06T07:02:52.556Z,72.93
2023-02-06T07:03:52.520Z,73.13
2023-02-06T07:04:52.511Z,73.17
2023-02-06T07:05:53.336Z,73.19
2023-02-06T07:06:52.481Z,72.92
2023-02-06T07:07:52.452Z,73.01
2023-02-06T07:08:52.444Z,72.71
2023-02-06T07:09:52.415Z,72.36
2023-02-06T07:10:52.402Z,72.04
2023-02-06T07:11:52.394Z,72.01
2023-02-06T07:12:52.386Z,71.92
2023-02-06T07:13:52.384Z,71.89
2023-02-06T07:14:52.376Z,72.25
2023-02-06T07:15:52.361Z,72.48
2023-02-06T07:16:52.344Z,72.93
2023-02-06T07:17:52.317Z,72.49
2023-02-06T07:18:52.319Z,72.57
2023-02-06T07:19:52.304Z,72.87
2023-02-06T07:20:52.361Z,72.50
2023-02-06T07:21:52.262Z,72.41
2023-02-06T07:22:52.249Z,72.33
2023-02-06T07:23:52.245Z,72.09
2023-02-06T07:24:54.348Z,72.28
2023-02-06T07:25:52.212Z,72.86
2023-02-06T07:26:52.198Z,72.58
2023-02-06T07:27:52.224Z,72.25
2023-02-06T07:28:52.190Z,72.44
2023-02-06T07:29:52.256Z,71.78
2023-02-06T07:30:52.193Z,71.31
2023-02-06T07:31:52.210Z,70.96
2023-02-06T07:32:52.128Z,70.92
2023-02-06T07:33:52.121Z,71.02
2023-02-06T07:34:52.126Z,70.96
2023-02-06T07:35:52.100Z,70.73
2023-02-06T07:36:52.105Z,70.62
2023-02-06T07:37:52.083Z,70.58
2023-02-06T07:38:52.050Z,70.69
2023-02-06T07:39:52.049Z,70.57
2023-02-06T07:40:52.065Z,70.61
2023-02-06T07:41:52.010Z,70.91
2023-02-06T07:42:52.041Z,71.11
2023-02-06T07:43:51.986Z,70.72
2023-02-06T07:44:52.010Z,70.71
2023-02-06T07:45:52.014Z,70.60
2023-02-06T07:46:51.972Z,70.66
2023-02-06T07:47:51.928Z,70.47
2023-02-06T07:48:51.966Z,70.55
2023-02-06T07:49:51.917Z,70.75
2023-02-06T07:50:51.894Z,70.97
2023-02-06T07:51:51.884Z,71.07
2023-02-06T07:52:52.556Z,71.28
2023-02-06T07:53:51.894Z,71.15
2023-02-06T07:54:51.862Z,70.97
2023-02-06T07:55:51.836Z,71.32
2023-02-06T07:56:51.832Z,71.52
2023-02-06T07:57:51.817Z,71.22
2023-02-06T07:58:51.843Z,70.83
2023-02-06T07:59:51.828Z,70.96
2023-02-06T08:00:51.826Z,70.87
2023-02-06T08:01:51.926Z,70.74
2023-02-06T08:02:51.785Z,70.53
2023-02-06T08:03:51.792Z,70.67
2023-02-06T08:04:51.724Z,70.58
2023-02-06T08:05:51.703Z,70.40
2023-02-06T08:06:51.717Z,70.55
2023-02-06T08:07:51.684Z,71.12
2023-02-06T08:08:51.665Z,70.51
2023-02-06T08:09:51.652Z,70.26
2023-02-06T08:10:51.664Z,70.11
2023-02-06T08:11:51.638Z,69.93
2023-02-06T08:12:51.643Z,70.45
2023-02-06T08:13:51.615Z,70.52
2023-02-06T08:14:51.611Z,70.19
2023-02-06T08:15:51.578Z,70.18
2023-02-06T08:16:51.624Z,70.41
2023-02-06T08:17:51.569Z,70.51
2023-02-06T08:18:51.573Z,70.45
2023-02-06T08:19:51.563Z,70.76
2023-02-06T08:20:51.539Z,70.55
2023-02-06T08:21:51.506Z,70.69
2023-02-06T08:22:51.509Z,70.49
2023-02-06T08:23:51.497Z,70.31
2023-02-06T08:24:51.487Z,69.97
2023-02-06T08:25:51.456Z,69.54
2023-02-06T08:26:51.452Z,69.75
2023-02-06T08:27:51.456Z,69.51
2023-02-06T08:28:51.431Z,69.61
2023-02-06T08:29:51.394Z,70.05
2023-02-06T08:30:51.550Z,70.18
2023-02-06T08:31:51.434Z,69.79
2023-02-06T08:32:51.373Z,70.10
2023-02-06T08:33:51.365Z,70.30
2023-02-06T08:34:51.341Z,70.19
2023-02-06T08:35:51.321Z,70.26
2023-02-06T08:36:51.329Z,70.48
2023-02-06T08:37:51.306Z,70.65
2023-02-06T08:38:51.291Z,70.82
2023-02-06T08:39:51.276Z,70.58
2023-02-06T08:40:51.264Z,70.61
2023-02-06T08:41:51.250Z,70.57
2023-02-06T08:42:51.268Z,70.23
2023-02-06T08:43:51.318Z,70.07
2023-02-06T08:44:51.205Z,69.93
2023-02-06T08:45:51.232Z,70.07
2023-02-06T08:46:58.848Z,70.27
2023-02-06T08:47:52.214Z,70.66
2023-02-06T08:48:51.184Z,70.72
2023-02-06T08:49:51.162Z,70.88
2023-02-06T08:50:51.143Z,70.73
2023-02-06T08:51:51.137Z,70.39
2023-02-06T08:52:51.116Z,70.29
2023-02-06T08:53:51.113Z,70.26
2023-02-06T08:54:51.142Z,70.14
2023-02-06T08:55:52.075Z,69.72
2023-02-06T08:56:51.095Z,69.50
2023-02-06T08:57:51.073Z,69.75
2023-02-06T08:58:51.154Z,69.93
2023-02-06T08:59:51.042Z,69.57
2023-02-06T09:00:51.072Z,68.99
2023-02-06T09:01:51.021Z,68.87
2023-02-06T09:02:51.202Z,68.53
2023-02-06T09:03:50.970Z,68.25
2023-02-06T09:04:51.028Z,68.14
2023-02-06T09:05:52.662Z,67.96
2023-02-06T09:06:50.961Z,67.74
2023-02-06T09:07:50.941Z,67.84
2023-02-06T09:08:50.949Z,68.04
2023-02-06T09:09:51.123Z,68.19
2023-02-06T09:10:51.000Z,67.49
2023-02-06T09:11:50.917Z,66.72
2023-02-06T09:12:50.989Z,66.16
2023-02-06T09:13:50.861Z,66.18
2023-02-06T09:14:51.042Z,66.18
2023-02-06T09:15:50.875Z,66.66
2023-02-06T09:16:50.808Z,66.53
2023-02-06T09:17:50.822Z,66.17
2023-02-06T09:18:52.694Z,65.99
2023-02-06T09:19:50.772Z,66.01
2023-02-06T09:20:50.783Z,66.04
2023-02-06T09:21:50.748Z,66.20
2023-02-06T09:22:50.824Z,66.09
2023-02-06T09:23:50.740Z,65.46
2023-02-06T09:24:50.707Z,65.14
2023-02-06T09:25:50.693Z,65.02
2023-02-06T09:26:59.527Z,65.18
2023-02-06T09:27:51.697Z,64.72
2023-02-06T09:28:51.655Z,64.80
2023-02-06T09:29:50.751Z,65.05
2023-02-06T09:30:50.841Z,65.36
2023-02-06T09:31:50.687Z,65.63
2023-02-06T09:32:50.639Z,65.11
2023-02-06T09:33:51.346Z,65.15
2023-02-06T09:34:50.742Z,64.47
2023-02-06T09:35:50.660Z,64.61
2023-02-06T09:36:50.590Z,64.29
2023-02-06T09:37:50.736Z,63.66
2023-02-06T09:38:53.467Z,63.60
2023-02-06T09:39:50.641Z,63.10
2023-02-06T09:40:50.711Z,62.96
2023-02-06T09:41:51.257Z,62.54
2023-02-06T09:42:50.516Z,62.28
2023-02-06T09:43:50.860Z,62.77
2023-02-06T09:44:50.621Z,62.94
2023-02-06T09:46:05.415Z,62.98
2023-02-06T09:46:50.520Z,63.38
2023-02-06T09:47:50.419Z,63.66
2023-02-06T09:48:50.440Z,62.69
2023-02-06T09:49:50.383Z,62.71
2023-02-06T09:50:50.395Z,62.92
2023-02-06T09:51:50.522Z,63.14
2023-02-06T09:52:50.408Z,63.41
2023-02-06T09:53:50.410Z,63.77
2023-02-06T09:54:50.317Z,63.60
2023-02-06T09:55:50.301Z,63.32
2023-02-06T09:56:51.317Z,63.46
2023-02-06T09:57:50.315Z,63.00
2023-02-06T09:58:51.010Z,62.61
2023-02-06T09:59:50.376Z,63.01
2023-02-06T10:00:50.288Z,62.68
2023-02-06T10:01:50.355Z,62.72
2023-02-06T10:02:51.945Z,62.32
2023-02-06T10:03:50.316Z,61.76
2023-02-06T10:04:50.235Z,61.59
2023-02-06T10:05:50.239Z,61.62
2023-02-06T10:06:50.175Z,61.75
2023-02-06T10:07:50.161Z,61.54
2023-02-06T10:08:50.134Z,60.92
2023-02-06T10:09:50.154Z,60.95
2023-02-06T10:10:50.170Z,60.94
2023-02-06T10:11:50.534Z,60.74
2023-02-06T10:12:50.127Z,60.39
2023-02-06T10:13:50.094Z,60.29
2023-02-06T10:14:50.323Z,60.16
2023-02-06T10:15:50.364Z,60.37
2023-02-06T10:16:50.676Z,60.69
2023-02-06T10:17:50.046Z,61.02
2023-02-06T10:18:50.027Z,61.18
2023-02-06T10:19:49.993Z,61.10
2023-02-06T10:20:50.196Z,60.53
2023-02-06T10:21:50.144Z,60.40
2023-02-06T10:22:50.661Z,60.49
2023-02-06T10:23:50.082Z,60.77
2023-02-06T10:24:51.155Z,60.76
2023-02-06T10:25:49.950Z,61.26
2023-02-06T10:26:50.014Z,62.55
2023-02-06T10:27:49.992Z,63.49
2023-02-06T10:28:50.823Z,63.79
2023-02-06T10:29:49.937Z,63.88
2023-02-06T10:30:49.986Z,64.83
2023-02-06T10:31:50.335Z,65.11
2023-02-06T10:32:50.686Z,64.89
2023-02-06T10:33:50.666Z,64.62
2023-02-06T10:34:52.075Z,64.47
2023-02-06T10:35:49.860Z,64.79
2023-02-06T10:36:49.767Z,64.35
2023-02-06T10:37:49.766Z,64.27
2023-02-06T10:38:49.758Z,64.14
2023-02-06T10:39:49.749Z,63.87
2023-02-06T10:40:49.731Z,63.88
2023-02-06T10:41:49.752Z,63.89
2023-02-06T10:42:49.695Z,63.52
2023-02-06T10:43:49.750Z,63.53
2023-02-06T10:44:51.570Z,64.07
2023-02-06T10:45:49.696Z,64.20
2023-02-06T10:46:49.685Z,63.93
2023-02-06T10:47:49.748Z,63.65
2023-02-06T10:48:49.613Z,63.87
2023-02-06T10:49:49.614Z,64.32
2023-02-06T10:50:50.572Z,64.76
2023-02-06T10:51:49.632Z,64.43
2023-02-06T10:52:49.573Z,64.47
2023-02-06T10:53:49.597Z,64.49
2023-02-06T10:54:49.559Z,64.89
2023-02-06T10:55:49.631Z,64.73
2023-02-06T10:56:49.518Z,64.35
2023-02-06T10:57:49.507Z,64.17
2023-02-06T10:58:49.500Z,64.09
2023-02-06T10:59:49.505Z,64.13
2023-02-06T11:00:49.516Z,64.11
2023-02-06T11:01:49.693Z,63.74
2023-02-06T11:03:01.363Z,63.28
2023-02-06T11:03:50.470Z,63.35
2023-02-06T11:04:49.416Z,63.72
2023-02-06T11:05:49.531Z,62.20
2023-02-06T11:06:49.397Z,61.20
2023-02-06T11:07:49.375Z,61.43
2023-02-06T11:08:49.365Z,61.46
2023-02-06T11:09:49.399Z,61.53
2023-02-06T11:10:49.325Z,61.46
2023-02-06T11:11:49.470Z,61.97
2023-02-06T11:12:49.304Z,61.24
2023-02-06T11:13:49.301Z,61.37
2023-02-06T11:14:49.323Z,61.11
2023-02-06T11:15:49.271Z,60.68
2023-02-06T11:16:49.284Z,60.67
2023-02-06T11:17:49.253Z,60.69
2023-02-06T11:18:49.277Z,61.16
2023-02-06T11:19:49.224Z,60.91
2023-02-06T11:20:49.210Z,61.43
2023-02-06T11:21:49.180Z,60.68
2023-02-06T11:22:52.992Z,59.22
2023-02-06T11:23:49.190Z,58.97
2023-02-06T11:24:49.151Z,59.31
2023-02-06T11:25:49.129Z,59.64
2023-02-06T11:26:49.133Z,59.30
2023-02-06T11:27:49.145Z,59.44
2023-02-06T11:28:49.094Z,60.27
2023-02-06T11:29:51.874Z,59.79
2023-02-06T11:30:49.082Z,59.32
2023-02-06T11:31:49.100Z,59.46
2023-02-06T11:33:03.669Z,59.57
2023-02-06T11:33:50.043Z,59.64
2023-02-06T11:34:49.016Z,59.78
2023-02-06T11:35:49.148Z,60.09
2023-02-06T11:36:49.065Z,59.66
2023-02-06T11:37:49.006Z,59.98
2023-02-06T11:38:48.987Z,59.75
2023-02-06T11:39:48.951Z,60.43
2023-02-06T11:40:48.940Z,60.09
2023-02-06T11:41:48.946Z,60.27
2023-02-06T11:42:48.917Z,59.98
2023-02-06T11:43:48.927Z,60.28
2023-02-06T11:44:48.892Z,60.42
2023-02-06T11:45:48.903Z,60.33
2023-02-06T11:46:48.880Z,60.03
2023-02-06T11:47:48.878Z,59.67
2023-02-06T11:48:48.840Z,59.24
2023-02-06T11:49:48.814Z,58.45
2023-02-06T11:50:48.827Z,58.53
2023-02-06T11:51:48.856Z,58.46
2023-02-06T11:52:48.795Z,57.58
2023-02-06T11:53:48.789Z,56.85
2023-02-06T11:54:48.754Z,56.98
2023-02-06T11:55:48.749Z,57.59
2023-02-06T11:56:48.730Z,57.35
2023-02-06T11:57:48.722Z,57.77
2023-02-06T11:58:48.713Z,58.21
2023-02-06T11:59:48.715Z,57.93
2023-02-06T12:00:48.672Z,57.79
2023-02-06T12:01:48.674Z,57.84
2023-02-06T12:02:48.643Z,57.76
2023-02-06T12:03:48.674Z,58.53
2023-02-06T12:04:48.653Z,58.72
2023-02-06T12:05:48.719Z,58.48
2023-02-06T12:06:48.737Z,58.62
2023-02-06T12:07:48.684Z,58.27
2023-02-06T12:08:49.566Z,58.09
2023-02-06T12:09:48.639Z,58.33
2023-02-06T12:10:49.273Z,58.61
2023-02-06T12:11:49.455Z,58.25
2023-02-06T12:12:48.570Z,58.00
2023-02-06T12:13:48.694Z,58.06
2023-02-06T12:14:49.304Z,57.70
2023-02-06T12:15:48.707Z,58.27
2023-02-06T12:16:49.505Z,58.34
2023-02-06T12:17:49.591Z,58.31
2023-02-06T12:18:49.224Z,57.80
2023-02-06T12:19:48.462Z,58.50
2023-02-06T12:20:48.435Z,57.99
2023-02-06T12:21:48.424Z,57.31
2023-02-06T12:22:48.505Z,57.18
2023-02-06T12:23:48.393Z,56.94
2023-02-06T12:24:51.065Z,57.60
2023-02-06T12:25:49.606Z,57.26
2023-02-06T12:26:49.975Z,57.09
2023-02-06T12:27:48.426Z,56.56
2023-02-06T12:28:48.403Z,56.47
2023-02-06T12:29:48.384Z,55.89
2023-02-06T12:30:49.199Z,55.81
2023-02-06T12:31:49.194Z,55.63
2023-02-06T12:32:49.787Z,56.05
2023-02-06T12:33:48.252Z,55.81
2023-02-06T12:34:49.803Z,55.67
2023-02-06T12:35:48.268Z,55.57
2023-02-06T12:36:49.054Z,56.15
2023-02-06T12:37:48.505Z,56.29
2023-02-06T12:38:50.922Z,56.20
2023-02-06T12:39:48.178Z,56.38
2023-02-06T12:40:48.145Z,56.59
2023-02-06T12:41:48.197Z,56.50
2023-02-06T12:42:48.107Z,56.64
2023-02-06T12:43:48.134Z,56.55
2023-02-06T12:44:48.096Z,57.15
2023-02-06T12:45:48.077Z,57.15
2023-02-06T12:46:48.069Z,57.87
2023-02-06T12:47:48.062Z,57.73
2023-02-06T12:48:48.046Z,57.57
2023-02-06T12:49:48.024Z,57.57
2023-02-06T12:50:48.012Z,57.56
2023-02-06T12:51:48.005Z,57.18
2023-02-06T12:52:47.984Z,56.83